Time;durP1;ratioP1;P1;durP2;ratioP2;P2;SDS_P1;SDS_P2;PMS_P1;PMS_P2;Temp;Humidity;BMP_temperature;BMP_pressure;BME280_temperature;BME280_humidity;BME280_pressure;Samples;Min_cycle;Max_cycle;Signal;HPM_P1;HPM_P2
2024/04/26 00:01:51;;;;;;;;;;;10.00;99.90;;;;;;4454876;26;20353;-67
2024/04/26 00:03:51;;;;;;;;;;;10.10;99.90;;;;;;4454232;26;19925;-66
2024/04/26 00:05:52;;;;;;;;;;;10.10;99.90;;;;;;4450629;26;19961;-67
2024/04/26 00:07:52;;;;;;;;;;;10.00;99.90;;;;;;4421215;26;19926;-67
2024/04/26 00:09:53;;;;;;;;;;;10.00;99.90;;;;;;4469931;26;19941;-67
2024/04/26 00:11:53;;;;;;;;;;;10.10;99.90;;;;;;4454128;26;19967;-67
2024/04/26 00:13:54;;;;;;;;;;;10.10;99.90;;;;;;4448346;26;19949;-67
2024/04/26 00:15:54;;;;;;;;;;;10.10;99.90;;;;;;4447263;26;19926;-67
2024/04/26 00:17:55;;;;;;;;;;;10.10;99.90;;;;;;4462282;26;19933;-67
2024/04/26 00:19:55;;;;;;;;;;;10.20;99.90;;;;;;4466561;26;19925;-67
2024/04/26 00:21:56;;;;;;;;;;;10.10;99.90;;;;;;4448166;26;20261;-67
2024/04/26 00:23:56;;;;;;;;;;;10.10;99.90;;;;;;4449973;26;19925;-67
2024/04/26 00:25:57;;;;;;;;;;;10.10;99.90;;;;;;4447263;26;19932;-67
2024/04/26 00:27:57;;;;;;;;;;;10.10;99.90;;;;;;4452609;26;20006;-66
2024/04/26 00:29:58;;;;;;;;;;;10.10;99.90;;;;;;4459764;26;20362;-67
2024/04/26 00:31:58;;;;;;;;;;;10.10;99.90;;;;;;4453603;26;19933;-67
2024/04/26 00:33:59;;;;;;;;;;;10.10;99.90;;;;;;4448959;26;20010;-67
2024/04/26 00:35:59;;;;;;;;;;;10.10;99.90;;;;;;4451332;26;19925;-67
2024/04/26 00:38:00;;;;;;;;;;;10.10;99.90;;;;;;4454294;26;20481;-67
2024/04/26 00:40:00;;;;;;;;;;;10.10;99.90;;;;;;4461753;26;20261;-67
2024/04/26 00:42:01;;;;;;;;;;;10.10;99.90;;;;;;4424424;26;20393;-67
2024/04/26 00:44:09;;;;;;;;;;;10.10;99.90;;;;;;4447760;26;19929;-67
2024/04/26 00:46:10;;;;;;;;;;;10.10;99.90;;;;;;4447717;26;20273;-67
2024/04/26 00:48:11;;;;;;;;;;;10.10;99.90;;;;;;4456312;26;19925;-67
2024/04/26 00:50:11;;;;;;;;;;;10.00;99.90;;;;;;4460767;26;19933;-68
2024/04/26 00:52:12;;;;;;;;;;;10.10;99.90;;;;;;4451290;26;19926;-64
2024/04/26 00:54:13;;;;;;;;;;;10.10;99.90;;;;;;4455596;26;19926;-65
2024/04/26 00:56:14;;;;;;;;;;;10.10;99.90;;;;;;4446750;26;20313;-64
2024/04/26 00:58:15;;;;;;;;;;;10.10;99.90;;;;;;4454118;26;19953;-64
2024/04/26 01:00:15;;;;;;;;;;;10.10;99.90;;;;;;4453621;26;19925;-64
2024/04/26 01:02:20;;;;;;;;;;;10.20;99.90;;;;;;4458613;26;19933;-66
2024/04/26 01:04:21;;;;;;;;;;;10.10;99.90;;;;;;4454601;26;20324;-65
2024/04/26 01:06:21;;;;;;;;;;;10.10;99.90;;;;;;4449628;26;19941;-65
2024/04/26 01:08:22;;;;;;;;;;;10.10;99.90;;;;;;4452098;26;20273;-64
2024/04/26 01:10:22;;;;;;;;;;;10.10;99.90;;;;;;4450032;26;19953;-65
2024/04/26 01:12:24;;;;;;;;;;;10.10;99.90;;;;;;4445371;26;19933;-64
2024/04/26 01:14:24;;;;;;;;;;;10.00;99.90;;;;;;4445204;26;20364;-66
2024/04/26 01:16:25;;;;;;;;;;;10.00;99.90;;;;;;4453642;26;19926;-65
2024/04/26 01:18:25;;;;;;;;;;;10.00;99.90;;;;;;4456893;26;19933;-64
2024/04/26 01:20:26;;;;;;;;;;;10.00;99.90;;;;;;4448590;26;19933;-65
2024/04/26 01:22:35;;;;;;;;;;;10.00;99.90;;;;;;4455183;26;20298;-65
2024/04/26 01:24:35;;;;;;;;;;;10.00;99.90;;;;;;4448718;26;19994;-64
2024/04/26 01:26:36;;;;;;;;;;;10.00;99.90;;;;;;4451159;26;20351;-64
2024/04/26 01:28:37;;;;;;;;;;;10.00;99.90;;;;;;4452728;26;19973;-64
2024/04/26 01:30:37;;;;;;;;;;;9.90;99.90;;;;;;4445327;26;19926;-64
2024/04/26 01:32:38;;;;;;;;;;;9.90;99.90;;;;;;4463832;26;19933;-64
2024/04/26 01:34:38;;;;;;;;;;;9.90;99.90;;;;;;4455612;26;20526;-64
2024/04/26 01:36:39;;;;;;;;;;;9.90;99.90;;;;;;4455530;26;19925;-64
2024/04/26 01:38:39;;;;;;;;;;;9.90;99.90;;;;;;4430209;26;20383;-64
2024/04/26 01:40:40;;;;;;;;;;;9.80;99.90;;;;;;4453458;26;19925;-64
2024/04/26 01:42:40;;;;;;;;;;;9.90;99.90;;;;;;4446893;26;19937;-64
2024/04/26 01:44:41;;;;;;;;;;;9.90;99.90;;;;;;4456721;26;19925;-65
2024/04/26 01:46:41;;;;;;;;;;;9.90;99.90;;;;;;4455508;26;20353;-64
2024/04/26 01:48:42;;;;;;;;;;;9.90;99.90;;;;;;4467172;26;20357;-64
2024/04/26 01:50:42;;;;;;;;;;;9.80;99.90;;;;;;4457967;26;20024;-64
2024/04/26 01:52:43;;;;;;;;;;;9.80;99.90;;;;;;4455427;26;19932;-64
2024/04/26 01:54:43;;;;;;;;;;;9.80;99.90;;;;;;4451672;26;20349;-64
2024/04/26 01:56:44;;;;;;;;;;;9.80;99.90;;;;;;4453957;26;19933;-65
2024/04/26 01:58:44;;;;;;;;;;;9.80;99.90;;;;;;4459301;26;19948;-64
2024/04/26 02:00:45;;;;;;;;;;;9.80;99.90;;;;;;4456781;26;19937;-65
2024/04/26 02:02:46;;;;;;;;;;;9.80;99.90;;;;;;4467349;26;19931;-64
2024/04/26 02:04:47;;;;;;;;;;;9.80;99.90;;;;;;4461261;26;19926;-65
2024/04/26 02:06:47;;;;;;;;;;;9.80;99.90;;;;;;4449607;26;19933;-65
2024/04/26 02:08:48;;;;;;;;;;;9.80;99.90;;;;;;4457471;26;19937;-65
2024/04/26 02:10:48;;;;;;;;;;;9.80;99.90;;;;;;4469568;26;20436;-65
2024/04/26 02:12:49;;;;;;;;;;;9.80;99.90;;;;;;4463168;26;19925;-65
2024/04/26 02:14:49;;;;;;;;;;;9.80;99.90;;;;;;4459563;26;19925;-65
2024/04/26 02:16:50;;;;;;;;;;;9.70;99.90;;;;;;4442242;26;19933;-64
2024/04/26 02:18:51;;;;;;;;;;;9.70;99.90;;;;;;4428863;26;19998;-65
2024/04/26 02:20:52;;;;;;;;;;;9.70;99.90;;;;;;4461395;26;19949;-65
2024/04/26 02:22:52;;;;;;;;;;;9.70;99.90;;;;;;4463034;26;19932;-65
2024/04/26 02:24:53;;;;;;;;;;;9.60;99.90;;;;;;4457363;26;19933;-64
2024/04/26 02:26:53;;;;;;;;;;;9.70;99.90;;;;;;4414880;26;20333;-64
2024/04/26 02:28:54;;;;;;;;;;;9.70;99.90;;;;;;4451707;26;19938;-64
2024/04/26 02:30:54;;;;;;;;;;;9.70;99.90;;;;;;4454162;26;19925;-64
2024/04/26 02:32:57;;;;;;;;;;;9.70;99.90;;;;;;4459037;26;19925;-65
2024/04/26 02:34:58;;;;;;;;;;;9.70;99.90;;;;;;4460346;26;20361;-64
2024/04/26 02:36:58;;;;;;;;;;;9.70;99.90;;;;;;4455382;26;19933;-65
2024/04/26 02:38:59;;;;;;;;;;;9.70;99.90;;;;;;4458850;26;19925;-64
2024/04/26 02:40:59;;;;;;;;;;;9.60;99.90;;;;;;4459677;26;20269;-65
2024/04/26 02:43:01;;;;;;;;;;;9.70;99.90;;;;;;4446858;26;19932;-64
2024/04/26 02:45:01;;;;;;;;;;;9.60;99.90;;;;;;4458613;26;19940;-64
2024/04/26 02:47:02;;;;;;;;;;;9.60;99.90;;;;;;4448483;26;19926;-64
2024/04/26 02:49:03;;;;;;;;;;;9.60;99.90;;;;;;4453410;26;19926;-65
2024/04/26 02:51:04;;;;;;;;;;;9.60;99.90;;;;;;4454028;26;19972;-64
2024/04/26 02:53:05;;;;;;;;;;;9.60;99.90;;;;;;4448799;26;20580;-64
2024/04/26 02:55:05;;;;;;;;;;;9.60;99.90;;;;;;4432990;26;19950;-66
2024/04/26 02:57:06;;;;;;;;;;;9.60;99.90;;;;;;4448183;26;19925;-64
2024/04/26 02:59:07;;;;;;;;;;;9.50;99.90;;;;;;4455438;26;19945;-64
2024/04/26 03:01:08;;;;;;;;;;;9.50;99.90;;;;;;4450546;26;20689;-64
2024/04/26 03:03:09;;;;;;;;;;;9.50;99.90;;;;;;4447368;26;19925;-64
2024/04/26 03:05:10;;;;;;;;;;;9.50;99.90;;;;;;4452122;26;19954;-67
2024/04/26 03:07:12;;;;;;;;;;;9.60;99.90;;;;;;4456179;26;20346;-64
2024/04/26 03:09:13;;;;;;;;;;;9.50;99.90;;;;;;4453080;26;19932;-64
2024/04/26 03:11:20;;;;;;;;;;;9.50;99.90;;;;;;4455111;26;20373;-68
2024/04/26 03:13:20;;;;;;;;;;;9.50;99.90;;;;;;4447327;26;19926;-68
2024/04/26 03:15:22;;;;;;;;;;;9.60;99.90;;;;;;4459683;26;19925;-68
2024/04/26 03:17:22;;;;;;;;;;;9.50;99.90;;;;;;4449028;26;20354;-68
2024/04/26 03:19:24;;;;;;;;;;;9.50;99.90;;;;;;4435723;26;19987;-67
2024/04/26 03:21:25;;;;;;;;;;;9.50;99.90;;;;;;4457170;26;19933;-66
2024/04/26 03:23:26;;;;;;;;;;;9.50;99.90;;;;;;4453323;26;19926;-65
2024/04/26 03:25:26;;;;;;;;;;;9.50;99.90;;;;;;4462010;26;19995;-66
2024/04/26 03:27:27;;;;;;;;;;;9.50;99.90;;;;;;4450878;26;20642;-66
2024/04/26 03:29:27;;;;;;;;;;;9.50;99.90;;;;;;4452397;26;19925;-63
2024/04/26 03:31:28;;;;;;;;;;;9.50;99.90;;;;;;4444105;26;19925;-59
2024/04/26 03:33:28;;;;;;;;;;;9.50;99.90;;;;;;4454946;26;20027;-67
2024/04/26 03:35:29;;;;;;;;;;;9.50;99.90;;;;;;4444882;26;19925;-67
2024/04/26 03:37:29;;;;;;;;;;;9.50;99.90;;;;;;4453539;26;19925;-67
2024/04/26 03:39:30;;;;;;;;;;;9.50;99.90;;;;;;4451720;26;19925;-68
2024/04/26 03:41:31;;;;;;;;;;;9.40;99.90;;;;;;4459666;26;19925;-67
2024/04/26 03:43:32;;;;;;;;;;;9.50;99.90;;;;;;4455687;26;19925;-67
2024/04/26 03:45:33;;;;;;;;;;;9.50;99.90;;;;;;4447352;26;19965;-67
2024/04/26 03:47:33;;;;;;;;;;;9.50;99.90;;;;;;4456521;26;20370;-67
2024/04/26 03:49:34;;;;;;;;;;;9.50;99.90;;;;;;4458826;26;19933;-68
2024/04/26 03:51:34;;;;;;;;;;;9.50;99.90;;;;;;4440765;26;20287;-67
2024/04/26 03:53:35;;;;;;;;;;;9.50;99.90;;;;;;4447584;26;19936;-67
2024/04/26 03:55:35;;;;;;;;;;;9.40;99.90;;;;;;4453627;26;19925;-67
2024/04/26 03:57:36;;;;;;;;;;;9.50;99.90;;;;;;4455113;26;19933;-66
2024/04/26 03:59:36;;;;;;;;;;;9.50;99.90;;;;;;4425357;26;19938;-67
2024/04/26 04:01:37;;;;;;;;;;;9.40;99.90;;;;;;4413192;26;19934;-67
2024/04/26 04:03:37;;;;;;;;;;;9.40;99.90;;;;;;4415262;26;19942;-67
2024/04/26 04:05:38;;;;;;;;;;;9.40;99.90;;;;;;4410163;26;19933;-64
2024/04/26 04:07:38;;;;;;;;;;;9.50;99.90;;;;;;4409103;26;19925;-63
2024/04/26 04:09:39;;;;;;;;;;;9.40;99.90;;;;;;4425556;26;20435;-63
2024/04/26 04:11:39;;;;;;;;;;;9.40;99.90;;;;;;4408745;26;19942;-63
2024/04/26 04:13:40;;;;;;;;;;;9.40;99.90;;;;;;4409996;26;19926;-63
2024/04/26 04:15:40;;;;;;;;;;;9.40;99.90;;;;;;4401453;26;19932;-63
2024/04/26 04:17:41;;;;;;;;;;;9.40;99.90;;;;;;4407219;26;19934;-63
2024/04/26 04:19:42;;;;;;;;;;;9.30;99.90;;;;;;4405985;26;20378;-63
2024/04/26 04:21:42;;;;;;;;;;;9.40;99.90;;;;;;4405295;26;19933;-64
2024/04/26 04:23:43;;;;;;;;;;;9.40;99.90;;;;;;4408142;26;20642;-64
2024/04/26 04:25:44;;;;;;;;;;;9.40;99.90;;;;;;4404248;26;19950;-64
2024/04/26 04:27:44;;;;;;;;;;;9.40;99.90;;;;;;4408259;26;20671;-64
2024/04/26 04:29:45;;;;;;;;;;;9.40;99.90;;;;;;4410857;26;19933;-64
2024/04/26 04:31:45;;;;;;;;;;;9.30;99.90;;;;;;4406996;26;20378;-64
2024/04/26 04:33:46;;;;;;;;;;;9.40;99.90;;;;;;4423693;26;19948;-64
2024/04/26 04:35:48;;;;;;;;;;;9.30;99.90;;;;;;4404370;26;19938;-64
2024/04/26 04:37:49;;;;;;;;;;;9.40;99.90;;;;;;4407325;26;20366;-64
2024/04/26 04:39:49;;;;;;;;;;;9.40;99.90;;;;;;4413521;26;19926;-64
2024/04/26 04:41:49;;;;;;;;;;;9.40;99.90;;;;;;4412189;26;20267;-64
2024/04/26 04:43:50;;;;;;;;;;;9.40;99.90;;;;;;4379212;27;19935;-67
2024/04/26 04:45:51;;;;;;;;;;;9.40;99.90;;;;;;4402352;26;19926;-65
2024/04/26 04:47:51;;;;;;;;;;;9.40;99.90;;;;;;4404004;26;19962;-65
2024/04/26 04:49:52;;;;;;;;;;;9.40;99.90;;;;;;4415551;26;19926;-64
2024/04/26 04:51:52;;;;;;;;;;;9.40;99.90;;;;;;4374422;26;19927;-64
2024/04/26 04:53:53;;;;;;;;;;;9.50;99.90;;;;;;4412411;26;19934;-70
2024/04/26 04:55:54;;;;;;;;;;;9.40;99.90;;;;;;4406035;26;19926;-64
2024/04/26 04:57:54;;;;;;;;;;;9.40;99.90;;;;;;4406547;26;19962;-70
2024/04/26 04:59:55;;;;;;;;;;;9.40;99.90;;;;;;4410474;26;19930;-73
2024/04/26 05:01:55;;;;;;;;;;;9.50;99.90;;;;;;4401688;26;19934;-59
2024/04/26 05:03:56;;;;;;;;;;;9.50;99.90;;;;;;4408799;26;20359;-59
2024/04/26 05:05:56;;;;;;;;;;;9.50;99.90;;;;;;4400607;26;19938;-62
2024/04/26 05:07:57;;;;;;;;;;;9.50;99.90;;;;;;4410095;26;19926;-64
2024/04/26 05:09:57;;;;;;;;;;;9.50;99.90;;;;;;4372148;27;20020;-65
2024/04/26 05:11:58;;;;;;;;;;;9.50;99.90;;;;;;4382259;26;19926;-65
2024/04/26 05:13:58;;;;;;;;;;;9.50;99.90;;;;;;4412791;26;19961;-65
2024/04/26 05:15:59;;;;;;;;;;;9.50;99.90;;;;;;4407015;26;19926;-65
2024/04/26 05:18:01;;;;;;;;;;;9.50;99.90;;;;;;4403148;26;19926;-70
2024/04/26 05:20:01;;;;;;;;;;;9.40;99.90;;;;;;4408268;26;19954;-59
2024/04/26 05:22:02;;;;;;;;;;;9.50;99.90;;;;;;4412959;26;20007;-59
2024/04/26 05:24:02;;;;;;;;;;;9.50;99.90;;;;;;4413713;26;20466;-58
2024/04/26 05:26:03;;;;;;;;;;;9.50;99.90;;;;;;4413617;26;19926;-59
2024/04/26 05:28:04;;;;;;;;;;;9.50;99.90;;;;;;4403345;26;19937;-59
2024/04/26 05:30:05;;;;;;;;;;;9.60;99.90;;;;;;4398352;26;19927;-65
2024/04/26 05:32:05;;;;;;;;;;;9.60;99.90;;;;;;4397555;26;20334;-71
2024/04/26 05:34:06;;;;;;;;;;;9.60;99.90;;;;;;4406073;26;19938;-71
2024/04/26 05:36:07;;;;;;;;;;;9.60;99.90;;;;;;4389443;26;19937;-71
2024/04/26 05:38:07;;;;;;;;;;;9.60;99.90;;;;;;4375648;27;19927;-71
2024/04/26 05:40:08;;;;;;;;;;;9.60;99.90;;;;;;4411249;26;19926;-70
2024/04/26 05:42:09;;;;;;;;;;;9.60;99.90;;;;;;4414494;26;19934;-73
2024/04/26 05:44:10;;;;;;;;;;;9.60;99.90;;;;;;4408713;26;19933;-73
2024/04/26 05:46:10;;;;;;;;;;;9.60;99.90;;;;;;4411671;26;20330;-71
2024/04/26 05:48:11;;;;;;;;;;;9.60;99.90;;;;;;4411940;26;19933;-71
2024/04/26 05:50:11;;;;;;;;;;;9.60;99.90;;;;;;4382666;26;20283;-70
2024/04/26 05:52:12;;;;;;;;;;;9.60;99.90;;;;;;4404118;26;19934;-70
2024/04/26 05:54:12;;;;;;;;;;;9.60;99.90;;;;;;4413298;26;19931;-71
2024/04/26 05:56:13;;;;;;;;;;;9.50;99.90;;;;;;4412514;26;19933;-71
2024/04/26 05:58:14;;;;;;;;;;;9.50;99.90;;;;;;4409458;26;19933;-70
2024/04/26 06:00:14;;;;;;;;;;;9.50;99.90;;;;;;4409705;26;20030;-70
2024/04/26 06:02:15;;;;;;;;;;;9.50;99.90;;;;;;4360612;27;19927;-71
2024/04/26 06:04:15;;;;;;;;;;;9.50;99.90;;;;;;4413284;26;19996;-70
2024/04/26 06:06:19;;;;;;;;;;;9.50;99.90;;;;;;4378248;27;19934;-71
2024/04/26 06:08:19;;;;;;;;;;;9.50;99.90;;;;;;4413118;26;20263;-71
2024/04/26 06:10:20;;;;;;;;;;;9.50;99.90;;;;;;4409838;26;19974;-63
2024/04/26 06:12:20;;;;;;;;;;;9.50;99.90;;;;;;4407461;26;19933;-63
2024/04/26 06:14:21;;;;;;;;;;;9.50;99.90;;;;;;4401387;26;19933;-63
2024/04/26 06:16:22;;;;;;;;;;;9.40;99.90;;;;;;4402893;26;19934;-63
2024/04/26 06:18:23;;;;;;;;;;;9.50;99.90;;;;;;4388676;26;19958;-63
2024/04/26 06:20:25;;;;;;;;;;;9.50;99.90;;;;;;4379858;27;19927;-63
2024/04/26 06:22:26;;;;;;;;;;;9.50;99.90;;;;;;4384519;26;19927;-63
2024/04/26 06:24:27;;;;;;;;;;;9.50;99.90;;;;;;4406911;26;20298;-63
2024/04/26 06:26:28;;;;;;;;;;;9.50;99.90;;;;;;4408372;26;19941;-63
2024/04/26 06:28:29;;;;;;;;;;;9.50;99.90;;;;;;4379679;27;20291;-64
2024/04/26 06:30:29;;;;;;;;;;;9.50;99.90;;;;;;4401870;26;20024;-64
2024/04/26 06:32:30;;;;;;;;;;;9.50;99.90;;;;;;4407949;26;20528;-64
2024/04/26 06:34:31;;;;;;;;;;;9.50;99.90;;;;;;4406517;26;19941;-63
2024/04/26 06:36:32;;;;;;;;;;;9.60;99.90;;;;;;4406358;26;19933;-63
2024/04/26 06:38:33;;;;;;;;;;;9.60;99.90;;;;;;4379005;26;20287;-64
2024/04/26 06:40:33;;;;;;;;;;;9.60;99.90;;;;;;4375393;27;20500;-63
2024/04/26 06:42:34;;;;;;;;;;;9.60;99.90;;;;;;4405987;26;19926;-59
2024/04/26 06:44:35;;;;;;;;;;;9.60;99.90;;;;;;4392146;26;20313;-59
2024/04/26 06:46:35;;;;;;;;;;;9.60;99.90;;;;;;4407089;26;20267;-59
2024/04/26 06:48:36;;;;;;;;;;;9.50;99.90;;;;;;4399450;26;19940;-60
2024/04/26 06:50:38;;;;;;;;;;;9.50;99.90;;;;;;4400204;26;20623;-59
2024/04/26 06:52:41;;;;;;;;;;;9.50;99.90;;;;;;4401221;26;19933;-59
2024/04/26 06:54:42;;;;;;;;;;;9.50;99.90;;;;;;4405023;26;19926;-59
2024/04/26 06:56:43;;;;;;;;;;;9.50;99.90;;;;;;4405981;26;20253;-59
2024/04/26 06:58:44;;;;;;;;;;;9.60;99.90;;;;;;4379070;27;19926;-59
2024/04/26 07:00:44;;;;;;;;;;;9.60;99.90;;;;;;4406247;26;19926;-59
2024/04/26 07:02:45;;;;;;;;;;;9.60;99.90;;;;;;4407921;26;19926;-59
2024/04/26 07:04:46;;;;;;;;;;;9.60;99.90;;;;;;4404707;26;19926;-59
2024/04/26 07:06:46;;;;;;;;;;;9.60;99.90;;;;;;4405219;26;20263;-60
2024/04/26 07:08:47;;;;;;;;;;;9.60;99.90;;;;;;4407037;26;19926;-60
2024/04/26 07:10:48;;;;;;;;;;;9.70;99.90;;;;;;4403892;26;20065;-60
2024/04/26 07:12:48;;;;;;;;;;;9.70;99.90;;;;;;4385284;26;20016;-60
2024/04/26 07:14:49;;;;;;;;;;;9.70;99.90;;;;;;4408202;26;19944;-60
2024/04/26 07:16:50;;;;;;;;;;;9.70;99.90;;;;;;4379974;27;19934;-60
2024/04/26 07:18:52;;;;;;;;;;;9.70;99.90;;;;;;4402975;26;19927;-60
2024/04/26 07:20:56;;;;;;;;;;;9.80;99.90;;;;;;4405815;26;19926;-60
2024/04/26 07:22:57;;;;;;;;;;;9.80;99.90;;;;;;4379995;27;19934;-60
2024/04/26 07:24:57;;;;;;;;;;;9.80;99.90;;;;;;4404490;26;20367;-60
2024/04/26 07:26:58;;;;;;;;;;;9.80;99.90;;;;;;4401050;26;19934;-60
2024/04/26 07:29:00;;;;;;;;;;;9.70;99.90;;;;;;4405782;26;19934;-63
2024/04/26 07:31:01;;;;;;;;;;;9.70;99.90;;;;;;4376594;27;19941;-60
2024/04/26 07:33:03;;;;;;;;;;;9.70;99.90;;;;;;4407269;26;19926;-61
2024/04/26 07:35:04;;;;;;;;;;;9.70;99.90;;;;;;4409865;26;19968;-65
2024/04/26 07:37:05;;;;;;;;;;;9.80;99.90;;;;;;4410894;26;19946;-62
2024/04/26 07:39:05;;;;;;;;;;;9.70;99.90;;;;;;4413956;26;19930;-61
2024/04/26 07:41:06;;;;;;;;;;;9.70;99.90;;;;;;4407813;26;20003;-60
2024/04/26 07:43:07;;;;;;;;;;;9.70;99.90;;;;;;4409935;26;19934;-60
2024/04/26 07:45:07;;;;;;;;;;;9.70;99.90;;;;;;4409131;26;19934;-61
2024/04/26 07:47:13;;;;;;;;;;;9.70;99.90;;;;;;4407697;26;19933;-60
2024/04/26 07:49:13;;;;;;;;;;;9.70;99.90;;;;;;4403896;26;20559;-60
2024/04/26 07:51:14;;;;;;;;;;;9.70;99.90;;;;;;4378669;26;19966;-60
2024/04/26 07:53:14;;;;;;;;;;;9.70;99.90;;;;;;4401794;26;19933;-60
2024/04/26 07:55:15;;;;;;;;;;;9.70;99.90;;;;;;4405091;26;20466;-60
2024/04/26 07:57:15;;;;;;;;;;;9.70;99.90;;;;;;4408090;26;19926;-60
2024/04/26 07:59:16;;;;;;;;;;;9.70;99.90;;;;;;4378424;26;19926;-60
2024/04/26 08:01:18;;;;;;;;;;;9.70;99.90;;;;;;4409025;26;20341;-60
2024/04/26 08:03:19;;;;;;;;;;;9.60;99.90;;;;;;4405154;26;19946;-60
2024/04/26 08:05:20;;;;;;;;;;;9.60;99.90;;;;;;4402866;26;20044;-60
2024/04/26 08:07:21;;;;;;;;;;;9.70;99.90;;;;;;4371397;27;19926;-60
2024/04/26 08:09:21;;;;;;;;;;;9.60;99.90;;;;;;4406301;26;19933;-60
2024/04/26 08:11:22;;;;;;;;;;;9.70;99.90;;;;;;4410190;26;19934;-60
2024/04/26 08:13:23;;;;;;;;;;;9.70;99.90;;;;;;4401796;26;19930;-60
2024/04/26 08:15:23;;;;;;;;;;;9.70;99.90;;;;;;4409184;26;20649;-60
2024/04/26 08:17:25;;;;;;;;;;;9.70;99.90;;;;;;4411289;26;19926;-60
2024/04/26 08:19:27;;;;;;;;;;;9.70;99.90;;;;;;4406989;26;19938;-60
2024/04/26 08:21:27;;;;;;;;;;;9.70;99.90;;;;;;4402363;26;19933;-60
2024/04/26 08:23:28;;;;;;;;;;;9.70;99.90;;;;;;4405406;26;20008;-60
2024/04/26 08:25:29;;;;;;;;;;;9.70;99.90;;;;;;4371861;27;19935;-60
2024/04/26 08:27:30;;;;;;;;;;;9.70;99.90;;;;;;4405185;26;19934;-61
2024/04/26 08:29:31;;;;;;;;;;;9.80;99.90;;;;;;4392624;26;19926;-61
2024/04/26 08:31:32;;;;;;;;;;;9.80;99.90;;;;;;4391933;26;20374;-60
2024/04/26 08:33:32;;;;;;;;;;;9.90;99.90;;;;;;4406999;26;19972;-60
2024/04/26 08:35:33;;;;;;;;;;;9.80;99.90;;;;;;4358960;27;20583;-60
2024/04/26 08:37:34;;;;;;;;;;;9.80;99.90;;;;;;4403209;26;20390;-60
2024/04/26 08:39:35;;;;;;;;;;;9.80;99.90;;;;;;4404994;26;19934;-60
2024/04/26 08:41:36;;;;;;;;;;;9.80;99.90;;;;;;4405471;26;20374;-60
2024/04/26 08:43:37;;;;;;;;;;;9.90;99.90;;;;;;4395370;26;19942;-60
2024/04/26 08:45:39;;;;;;;;;;;9.90;99.90;;;;;;4404758;26;19940;-60
2024/04/26 08:47:40;;;;;;;;;;;10.00;99.90;;;;;;4393314;26;19926;-61
2024/04/26 08:49:43;;;;;;;;;;;10.00;99.90;;;;;;4377664;26;19946;-60
2024/04/26 08:51:47;;;;;;;;;;;10.00;99.90;;;;;;4406526;26;19934;-60
2024/04/26 08:53:48;;;;;;;;;;;10.00;99.90;;;;;;4409057;26;19933;-60
2024/04/26 08:55:48;;;;;;;;;;;10.10;99.90;;;;;;4410680;26;20287;-60
2024/04/26 08:57:49;;;;;;;;;;;10.10;99.90;;;;;;4410558;26;19944;-60
2024/04/26 08:59:51;;;;;;;;;;;10.20;99.90;;;;;;4410228;26;20299;-60
2024/04/26 09:01:52;;;;;;;;;;;10.20;99.90;;;;;;4406359;26;19942;-67
2024/04/26 09:03:53;;;;;;;;;;;10.20;99.90;;;;;;4379061;27;20358;-67
2024/04/26 09:05:54;;;;;;;;;;;10.30;99.90;;;;;;4409813;26;19934;-67
2024/04/26 09:07:58;;;;;;;;;;;10.20;99.90;;;;;;4404792;26;20270;-67
2024/04/26 09:09:58;;;;;;;;;;;10.30;99.90;;;;;;4379923;27;19989;-66
2024/04/26 09:12:01;;;;;;;;;;;10.20;99.90;;;;;;4396176;26;19942;-67
2024/04/26 09:14:01;;;;;;;;;;;10.30;99.90;;;;;;4407941;26;19933;-67
2024/04/26 09:16:02;;;;;;;;;;;10.40;99.90;;;;;;4405861;26;19934;-67
2024/04/26 09:18:02;;;;;;;;;;;10.40;99.90;;;;;;4409400;26;19941;-67
2024/04/26 09:20:03;;;;;;;;;;;10.30;99.90;;;;;;4408856;26;19934;-67
2024/04/26 09:22:06;;;;;;;;;;;10.30;99.90;;;;;;4404030;26;20327;-66
2024/04/26 09:24:06;;;;;;;;;;;10.30;99.90;;;;;;4410476;26;19933;-66
2024/04/26 09:26:07;;;;;;;;;;;10.30;99.90;;;;;;4367550;27;19927;-66
2024/04/26 09:28:09;;;;;;;;;;;10.30;99.90;;;;;;4412650;26;20000;-66
2024/04/26 09:30:09;;;;;;;;;;;10.40;99.90;;;;;;4376733;27;20442;-67
2024/04/26 09:32:10;;;;;;;;;;;10.40;99.90;;;;;;4406613;26;19949;-68
2024/04/26 09:34:15;;;;;;;;;;;10.40;99.90;;;;;;4408099;26;20007;-66
2024/04/26 09:36:18;;;;;;;;;;;10.40;99.90;;;;;;4377124;27;19926;-66
2024/04/26 09:38:21;;;;;;;;;;;10.40;99.90;;;;;;4404899;26;19935;-66
2024/04/26 09:40:22;;;;;;;;;;;10.40;99.90;;;;;;4352239;27;20001;-66
2024/04/26 09:42:22;;;;;;;;;;;10.40;99.90;;;;;;4407352;26;20351;-67
2024/04/26 09:44:23;;;;;;;;;;;10.40;99.90;;;;;;4410053;26;20005;-67
2024/04/26 09:46:28;;;;;;;;;;;10.40;99.90;;;;;;4407241;26;19935;-67
2024/04/26 09:48:29;;;;;;;;;;;10.40;99.90;;;;;;4406762;26;19927;-67
2024/04/26 09:50:31;;;;;;;;;;;10.40;99.90;;;;;;4412031;26;19971;-66
2024/04/26 09:52:32;;;;;;;;;;;10.40;99.90;;;;;;4411444;26;19926;-66
2024/04/26 09:54:33;;;;;;;;;;;10.40;99.90;;;;;;4407953;26;19940;-66
2024/04/26 09:56:34;;;;;;;;;;;10.40;99.90;;;;;;4404741;26;20274;-66
2024/04/26 09:58:35;;;;;;;;;;;10.40;99.90;;;;;;4398391;26;19954;-66
2024/04/26 10:00:38;;;;;;;;;;;10.40;99.90;;;;;;4375975;27;19942;-66
2024/04/26 10:02:38;;;;;;;;;;;10.40;99.90;;;;;;4412587;26;19934;-66
2024/04/26 10:04:39;;;;;;;;;;;10.40;99.90;;;;;;4411758;26;20628;-66
2024/04/26 10:06:40;;;;;;;;;;;10.40;99.90;;;;;;4377812;26;19940;-66
2024/04/26 10:08:41;;;;;;;;;;;10.30;99.90;;;;;;4406784;26;19941;-66
2024/04/26 10:10:41;;;;;;;;;;;10.30;99.90;;;;;;4399650;26;20277;-60
2024/04/26 10:12:42;;;;;;;;;;;10.30;99.90;;;;;;4398994;26;19970;-68
2024/04/26 10:14:44;;;;;;;;;;;10.40;99.90;;;;;;4366647;27;19934;-67
2024/04/26 10:16:44;;;;;;;;;;;10.40;99.90;;;;;;4379844;27;20301;-66
2024/04/26 10:18:45;;;;;;;;;;;10.40;99.90;;;;;;4391332;26;19934;-66
2024/04/26 10:20:46;;;;;;;;;;;10.40;99.90;;;;;;4409212;26;19933;-66
2024/04/26 10:22:59;;;;;;;;;;;10.40;99.90;;;;;;4412879;26;21571;-67
2024/04/26 10:24:59;;;;;;;;;;;10.40;99.90;;;;;;4409506;26;20377;-66
2024/04/26 10:27:03;;;;;;;;;;;10.40;99.90;;;;;;4411821;26;19941;-67
2024/04/26 10:29:13;;;;;;;;;;;10.40;99.90;;;;;;4393131;26;20404;-67
2024/04/26 10:31:14;;;;;;;;;;;10.50;99.90;;;;;;4404953;26;20711;-67
2024/04/26 10:33:15;;;;;;;;;;;10.50;99.90;;;;;;4412685;26;19946;-67
2024/04/26 10:35:19;;;;;;;;;;;10.50;99.90;;;;;;4410742;26;20432;-66
2024/04/26 10:37:20;;;;;;;;;;;10.50;99.90;;;;;;4409242;26;19957;-66
2024/04/26 10:39:25;;;;;;;;;;;10.50;99.90;;;;;;4412388;26;20391;-67
2024/04/26 10:41:26;;;;;;;;;;;10.50;99.90;;;;;;4380141;27;19927;-66
2024/04/26 10:43:27;;;;;;;;;;;10.50;99.90;;;;;;4414117;26;19929;-66
2024/04/26 10:45:28;;;;;;;;;;;10.50;99.90;;;;;;4409968;26;20869;-67
2024/04/26 10:47:28;;;;;;;;;;;10.50;99.90;;;;;;4385749;26;19946;-66
2024/04/26 10:49:33;;;;;;;;;;;10.60;99.90;;;;;;4412170;26;19926;-66
2024/04/26 10:51:33;;;;;;;;;;;10.60;99.90;;;;;;4412155;26;20445;-66
2024/04/26 10:53:34;;;;;;;;;;;10.60;99.90;;;;;;4408034;26;19965;-67
2024/04/26 10:55:38;;;;;;;;;;;10.60;99.90;;;;;;4406693;26;19934;-66
2024/04/26 10:57:39;;;;;;;;;;;10.60;99.90;;;;;;4406204;26;19972;-67
2024/04/26 10:59:40;;;;;;;;;;;10.60;99.90;;;;;;4406720;26;20331;-65
2024/04/26 11:01:40;;;;;;;;;;;10.70;99.90;;;;;;4411865;26;20021;-66
2024/04/26 11:03:47;;;;;;;;;;;10.60;99.90;;;;;;4411883;26;20016;-66
2024/04/26 11:05:47;;;;;;;;;;;10.70;99.90;;;;;;4406303;26;20325;-65
2024/04/26 11:07:53;;;;;;;;;;;10.70;99.90;;;;;;4409513;26;19934;-66
2024/04/26 11:09:53;;;;;;;;;;;10.80;99.90;;;;;;4386403;26;20374;-65
2024/04/26 11:11:56;;;;;;;;;;;10.80;99.90;;;;;;4380375;27;19978;-66
2024/04/26 11:13:58;;;;;;;;;;;10.80;99.90;;;;;;4404900;26;20420;-66
2024/04/26 11:15:58;;;;;;;;;;;10.70;99.90;;;;;;4413710;26;19933;-67
2024/04/26 11:17:59;;;;;;;;;;;10.70;99.90;;;;;;4410224;26;19926;-67
2024/04/26 11:20:00;;;;;;;;;;;10.70;99.90;;;;;;4414283;26;19926;-67
2024/04/26 11:22:01;;;;;;;;;;;10.80;99.90;;;;;;4410111;26;19926;-66
2024/04/26 11:24:02;;;;;;;;;;;10.70;99.90;;;;;;4413689;26;19935;-67
2024/04/26 11:26:02;;;;;;;;;;;10.80;99.90;;;;;;4394035;26;19933;-66
2024/04/26 11:28:03;;;;;;;;;;;10.80;99.90;;;;;;4355292;27;19927;-67
2024/04/26 11:30:04;;;;;;;;;;;10.80;99.90;;;;;;4410054;26;21318;-68
2024/04/26 11:32:04;;;;;;;;;;;10.80;99.90;;;;;;4389365;26;19945;-67
2024/04/26 11:34:05;;;;;;;;;;;10.80;99.90;;;;;;4405465;26;19937;-66
2024/04/26 11:36:06;;;;;;;;;;;10.80;99.90;;;;;;4402996;26;20282;-67
2024/04/26 11:38:06;;;;;;;;;;;10.80;99.90;;;;;;4406179;26;19926;-66
2024/04/26 11:40:07;;;;;;;;;;;10.80;99.90;;;;;;4405416;26;19938;-67
2024/04/26 11:42:08;;;;;;;;;;;10.80;99.90;;;;;;4403409;26;19996;-66
2024/04/26 11:44:12;;;;;;;;;;;10.90;99.90;;;;;;4403259;26;19999;-67
2024/04/26 11:46:12;;;;;;;;;;;10.90;99.90;;;;;;4410617;26;19934;-66
2024/04/26 11:48:13;;;;;;;;;;;10.90;99.90;;;;;;4405578;26;19933;-67
2024/04/26 11:50:14;;;;;;;;;;;10.80;99.90;;;;;;4396884;26;19953;-67
2024/04/26 11:52:14;;;;;;;;;;;10.90;99.90;;;;;;4405653;26;19942;-66